Time;durP1;ratioP1;P1;durP2;ratioP2;P2;SDS_P1;SDS_P2;PMS_P1;PMS_P2;Temp;Humidity;BMP_temperature;BMP_pressure;BME280_temperature;BME280_humidity;BME280_pressure;Samples;Min_cycle;Max_cycle;Signal;HPM_P1;HPM_P2
2023/02/04 00:00:27;;;;;;;6.50;3.20;;;;;;;-128.00;-1.00;-1.00;102560;1263;1004439;-46
2023/02/04 00:02:56;;;;;;;6.20;3.10;;;;;;;-128.00;-1.00;-1.00;102005;1254;1054274;-46
2023/02/04 00:05:24;;;;;;;8.90;3.00;;;;;;;-128.00;-1.00;-1.00;101994;1255;1005558;-45
2023/02/04 00:07:52;;;;;;;4.90;2.70;;;;;;;-128.00;-1.00;-1.00;101957;1253;1005089;-45
2023/02/04 00:10:20;;;;;;;4.60;2.10;;;;;;;-128.00;-1.00;-1.00;101888;1255;1047256;-48
2023/02/04 00:12:49;;;;;;;3.10;1.30;;;;;;;-128.00;-1.00;-1.00;102777;1253;1060706;-44
2023/02/04 00:15:22;;;;;;;6.20;1.80;;;;;;;-128.00;-1.00;-1.00;102060;1256;1054666;-46
2023/02/04 00:17:50;;;;;;;3.40;1.60;;;;;;;-128.00;-1.00;-1.00;101871;1250;1004468;-46
2023/02/04 00:20:18;;;;;;;2.80;1.40;;;;;;;-128.00;-1.00;-1.00;101984;1251;1004187;-46
2023/02/04 00:22:46;;;;;;;3.20;1.40;;;;;;;-128.00;-1.00;-1.00;102278;1254;1046592;-46
2023/02/04 00:25:14;;;;;;;5.90;1.80;;;;;;;-128.00;-1.00;-1.00;102006;1257;1005015;-49
2023/02/04 00:27:42;;;;;;;4.70;1.70;;;;;;;-128.00;-1.00;-1.00;101863;1255;1004220;-45
2023/02/04 00:30:11;;;;;;;5.90;1.60;;;;;;;-128.00;-1.00;-1.00;102171;1258;1004599;-46
2023/02/04 00:32:41;;;;;;;3.70;1.20;;;;;;;-128.00;-1.00;-1.00;101974;1254;1048220;-46
2023/02/04 00:35:09;;;;;;;5.30;1.90;;;;;;;-128.00;-1.00;-1.00;102126;1253;1004911;-47
2023/02/04 00:37:37;;;;;;;5.60;1.70;;;;;;;-128.00;-1.00;-1.00;102773;1256;1004338;-46
2023/02/04 00:40:06;;;;;;;5.60;2.00;;;;;;;-128.00;-1.00;-1.00;102140;1253;1004562;-47
2023/02/04 00:42:34;;;;;;;5.20;2.50;;;;;;;-128.00;-1.00;-1.00;102467;1251;1059987;-49
2023/02/04 00:45:02;;;;;;;6.00;2.10;;;;;;;-128.00;-1.00;-1.00;102947;1254;1046758;-48
2023/02/04 00:47:31;;;;;;;6.20;2.10;;;;;;;-128.00;-1.00;-1.00;102246;1254;1047889;-48
2023/02/04 00:49:59;;;;;;;7.00;2.40;;;;;;;-128.00;-1.00;-1.00;102259;1253;1004997;-48
2023/02/04 00:52:27;;;;;;;5.70;1.90;;;;;;;-128.00;-1.00;-1.00;102458;1253;1004934;-49
2023/02/04 00:54:55;;;;;;;5.40;2.60;;;;;;;-128.00;-1.00;-1.00;102345;1254;1003789;-45
2023/02/04 00:57:23;;;;;;;4.20;2.10;;;;;;;-128.00;-1.00;-1.00;102134;1252;1004550;-47
2023/02/04 00:59:51;;;;;;;3.20;1.70;;;;;;;-128.00;-1.00;-1.00;102862;1253;1004751;-46
2023/02/04 01:02:19;;;;;;;2.70;1.40;;;;;;;-128.00;-1.00;-1.00;102582;1254;1005136;-46
2023/02/04 01:04:47;;;;;;;4.30;1.50;;;;;;;-128.00;-1.00;-1.00;102403;1251;1004707;-48
2023/02/04 01:07:17;;;;;;;5.10;1.70;;;;;;;-128.00;-1.00;-1.00;101711;1254;1059090;-47
2023/02/04 01:09:45;;;;;;;4.10;1.20;;;;;;;-128.00;-1.00;-1.00;101841;1253;1005320;-47
2023/02/04 01:12:13;;;;;;;2.60;1.40;;;;;;;-128.00;-1.00;-1.00;101809;1253;1003680;-45
2023/02/04 01:14:41;;;;;;;5.90;1.80;;;;;;;-128.00;-1.00;-1.00;102429;1257;1004438;-48
2023/02/04 01:17:09;;;;;;;3.50;1.40;;;;;;;-128.00;-1.00;-1.00;103277;1253;1004618;-47
2023/02/04 01:19:37;;;;;;;4.30;1.50;;;;;;;-128.00;-1.00;-1.00;101837;1253;1004698;-47
2023/02/04 01:22:05;;;;;;;5.50;1.30;;;;;;;-128.00;-1.00;-1.00;101975;1251;1004155;-47
2023/02/04 01:24:34;;;;;;;4.50;1.20;;;;;;;-128.00;-1.00;-1.00;102024;1257;1049876;-47
2023/02/04 01:27:20;;;;;;;3.20;1.40;;;;;;;-128.00;-1.00;-1.00;102138;1256;1063326;-46
2023/02/04 01:29:48;;;;;;;4.70;1.50;;;;;;;-128.00;-1.00;-1.00;101914;1254;1004784;-48
2023/02/04 01:32:17;;;;;;;4.30;1.90;;;;;;;-128.00;-1.00;-1.00;102003;1251;1058530;-47
2023/02/04 01:34:46;;;;;;;3.40;1.80;;;;;;;-128.00;-1.00;-1.00;102319;1257;1046101;-48
2023/02/04 01:37:14;;;;;;;5.30;2.30;;;;;;;-128.00;-1.00;-1.00;101997;1253;1005087;-50
2023/02/04 01:39:42;;;;;;;4.50;1.70;;;;;;;-128.00;-1.00;-1.00;102219;1256;1004170;-47
2023/02/04 01:42:10;;;;;;;3.20;1.70;;;;;;;-128.00;-1.00;-1.00;101995;1254;1004732;-47
2023/02/04 01:44:39;;;;;;;3.10;1.50;;;;;;;-128.00;-1.00;-1.00;102119;1257;1058569;-46
2023/02/04 01:47:08;;;;;;;4.70;1.40;;;;;;;-128.00;-1.00;-1.00;102241;1253;1005392;-47
2023/02/04 01:49:36;;;;;;;1.90;1.40;;;;;;;-128.00;-1.00;-1.00;102025;1255;1046152;-47
2023/02/04 01:52:04;;;;;;;2.40;1.10;;;;;;;-128.00;-1.00;-1.00;102291;1260;1004668;-45
2023/02/04 01:54:32;;;;;;;1.90;1.10;;;;;;;-128.00;-1.00;-1.00;101902;1256;1004165;-47
2023/02/04 01:57:00;;;;;;;3.20;1.30;;;;;;;-128.00;-1.00;-1.00;101950;1253;1058635;-45
2023/02/04 01:59:29;;;;;;;3.70;1.40;;;;;;;-128.00;-1.00;-1.00;101789;1258;1005437;-46
2023/02/04 02:02:02;;;;;;;1.50;0.90;;;;;;;-128.00;-1.00;-1.00;102043;1257;1046613;-46
2023/02/04 02:04:31;;;;;;;1.70;0.90;;;;;;;-128.00;-1.00;-1.00;102185;1251;1060196;-46
2023/02/04 02:07:03;;;;;;;2.60;1.20;;;;;;;-128.00;-1.00;-1.00;101991;1254;1054446;-45
2023/02/04 02:09:31;;;;;;;2.80;1.10;;;;;;;-128.00;-1.00;-1.00;102284;1254;1058845;-47
2023/02/04 02:12:00;;;;;;;2.40;1.00;;;;;;;-128.00;-1.00;-1.00;101872;1254;1004269;-48
2023/02/04 02:14:29;;;;;;;4.40;1.50;;;;;;;-128.00;-1.00;-1.00;101940;1254;1049469;-49
2023/02/04 02:16:57;;;;;;;3.10;1.40;;;;;;;-128.00;-1.00;-1.00;102435;1257;1005751;-44
2023/02/04 02:19:28;;;;;;;7.70;2.60;;;;;;;-128.00;-1.00;-1.00;101763;1257;1004832;-44
2023/02/04 02:23:17;;;;;;;5.20;1.30;;;;;;;-131.21;19.20;23285.93;100587;1294;1002572;-44
2023/02/04 02:25:45;;;;;;;5.30;1.90;;;;;;;-128.00;-1.00;-1.00;102314;1266;1011943;-46
2023/02/04 02:28:15;;;;;;;4.30;1.40;;;;;;;-128.00;-1.00;-1.00;102239;1268;1003539;-46
2023/02/04 02:30:46;;;;;;;7.40;1.50;;;;;;;-128.00;-1.00;-1.00;102159;1263;1013655;-46
2023/02/04 02:33:16;;;;;;;3.70;1.10;;;;;;;-128.00;-1.00;-1.00;102305;1276;1013204;-50
2023/02/04 02:35:47;;;;;;;2.90;1.00;;;;;;;-128.00;-1.00;-1.00;102999;1267;1013637;-47
2023/02/04 02:38:16;;;;;;;1.90;1.00;;;;;;;-128.00;-1.00;-1.00;102334;1264;1010968;-47
2023/02/04 02:40:44;;;;;;;3.40;1.30;;;;;;;-128.00;-1.00;-1.00;103541;1264;1011153;-48
2023/02/04 02:43:16;;;;;;;2.10;1.10;;;;;;;-128.00;-1.00;-1.00;102708;1260;1003053;-44
2023/02/04 02:45:44;;;;;;;5.90;1.00;;;;;;;-128.00;-1.00;-1.00;102323;1264;1012762;-55
2023/02/04 02:48:13;;;;;;;2.70;1.10;;;;;;;-128.00;-1.00;-1.00;103350;1260;1013435;-44
2023/02/04 02:50:41;;;;;;;2.60;1.30;;;;;;;-128.00;-1.00;-1.00;103074;1264;1002301;-47
2023/02/04 02:53:10;;;;;;;1.60;1.00;;;;;;;-128.00;-1.00;-1.00;102675;1267;1011625;-47
2023/02/04 02:55:39;;;;;;;2.40;1.60;;;;;;;-128.00;-1.00;-1.00;102245;1266;1012923;-49
2023/02/04 02:58:28;;;;;;;3.60;1.50;;;;;;;-128.00;-1.00;-1.00;102368;1260;1013142;-46
2023/02/04 03:00:57;;;;;;;3.30;1.10;;;;;;;-128.00;-1.00;-1.00;102188;1267;1012940;-48
2023/02/04 03:03:26;;;;;;;3.00;1.30;;;;;;;-128.00;-1.00;-1.00;102673;1266;1010330;-48
2023/02/04 03:06:00;;;;;;;4.30;1.40;;;;;;;-128.00;-1.00;-1.00;102567;1268;1011399;-47
2023/02/04 03:08:28;;;;;;;3.80;1.00;;;;;;;-128.00;-1.00;-1.00;102317;1264;1012961;-47
2023/02/04 03:10:56;;;;;;;4.50;1.20;;;;;;;-128.00;-1.00;-1.00;102238;1266;1003605;-46
2023/02/04 03:13:24;;;;;;;5.00;2.00;;;;;;;-128.00;-1.00;-1.00;102403;1266;1003841;-47
2023/02/04 03:15:52;;;;;;;3.40;1.40;;;;;;;-128.00;-1.00;-1.00;102189;1268;1003397;-49
2023/02/04 03:18:20;;;;;;;2.50;1.30;;;;;;;-128.00;-1.00;-1.00;102336;1264;1011036;-47
2023/02/04 03:20:49;;;;;;;3.40;1.10;;;;;;;-128.00;-1.00;-1.00;103028;1260;1013184;-47
2023/02/04 03:23:17;;;;;;;4.00;1.40;;;;;;;-128.00;-1.00;-1.00;103562;1262;1013445;-49
2023/02/04 03:25:45;;;;;;;2.00;0.90;;;;;;;-128.00;-1.00;-1.00;102578;1258;1002801;-48
2023/02/04 03:28:13;;;;;;;2.40;1.30;;;;;;;-128.00;-1.00;-1.00;102376;1257;1010569;-49
2023/02/04 03:30:41;;;;;;;3.50;1.40;;;;;;;-128.00;-1.00;-1.00;102519;1258;1013166;-48
2023/02/04 03:33:10;;;;;;;2.90;1.10;;;;;;;-128.00;-1.00;-1.00;102562;1263;1013586;-49
2023/02/04 03:35:38;;;;;;;2.90;1.30;;;;;;;-128.00;-1.00;-1.00;102458;1261;1011969;-47
2023/02/04 03:38:06;;;;;;;4.50;1.40;;;;;;;-128.00;-1.00;-1.00;102496;1262;1002469;-48
2023/02/04 03:40:34;;;;;;;2.40;1.00;;;;;;;-128.00;-1.00;-1.00;102586;1264;1010163;-48
2023/02/04 03:43:02;;;;;;;3.90;1.40;;;;;;;-128.00;-1.00;-1.00;102644;1260;1011319;-45
2023/02/04 03:45:30;;;;;;;3.20;1.30;;;;;;;-128.00;-1.00;-1.00;102582;1264;1003286;-49
2023/02/04 03:48:11;;;;;;;4.00;1.30;;;;;;;-128.00;-1.00;-1.00;102438;1263;1012527;-45
2023/02/04 03:50:39;;;;;;;2.70;1.60;;;;;;;-128.00;-1.00;-1.00;102775;1264;1012239;-48
2023/02/04 03:53:08;;;;;;;3.30;1.60;;;;;;;-128.00;-1.00;-1.00;102473;1262;1002929;-48
2023/02/04 03:55:36;;;;;;;2.80;1.40;;;;;;;-128.00;-1.00;-1.00;102687;1260;1012106;-49
2023/02/04 03:58:04;;;;;;;3.80;1.40;;;;;;;-128.00;-1.00;-1.00;105893;1259;1002559;-47
2023/02/04 04:00:32;;;;;;;3.50;1.60;;;;;;;-128.00;-1.00;-1.00;104866;1260;1012580;-46
2023/02/04 04:03:00;;;;;;;4.70;1.60;;;;;;;-128.00;-1.00;-1.00;102619;1263;1003027;-48
2023/02/04 04:05:29;;;;;;;3.90;1.30;;;;;;;-128.00;-1.00;-1.00;102566;1260;1009851;-49
2023/02/04 04:07:57;;;;;;;3.10;1.10;;;;;;;-128.00;-1.00;-1.00;102577;1263;1003039;-48
2023/02/04 04:10:28;;;;;;;4.20;1.30;;;;;;;-128.00;-1.00;-1.00;103323;1263;1012715;-48
2023/02/04 04:12:58;;;;;;;3.40;1.10;;;;;;;-128.00;-1.00;-1.00;102555;1263;1013080;-47
2023/02/04 04:15:26;;;;;;;2.00;1.10;;;;;;;-128.00;-1.00;-1.00;102809;1261;1002377;-48
2023/02/04 04:17:54;;;;;;;5.10;1.60;;;;;;;-128.00;-1.00;-1.00;102574;1260;1003213;-48
2023/02/04 04:20:24;;;;;;;4.70;1.60;;;;;;;-128.00;-1.00;-1.00;102646;1260;1006202;-47
2023/02/04 04:22:52;;;;;;;3.30;1.30;;;;;;;-128.00;-1.00;-1.00;102787;1260;1012971;-48
2023/02/04 04:25:20;;;;;;;3.30;1.60;;;;;;;-128.00;-1.00;-1.00;102963;1260;1004833;-47
2023/02/04 04:27:49;;;;;;;5.70;2.20;;;;;;;-128.00;-1.00;-1.00;105911;1257;1013563;-47
2023/02/04 04:30:17;;;;;;;5.40;2.60;;;;;;;-128.00;-1.00;-1.00;104620;1257;1002540;-47
2023/02/04 04:32:45;;;;;;;7.30;2.60;;;;;;;-128.00;-1.00;-1.00;103097;1256;1010854;-48
2023/02/04 04:35:13;;;;;;;8.20;3.30;;;;;;;-128.00;-1.00;-1.00;104767;1256;1002364;-49
2023/02/04 04:37:41;;;;;;;6.20;2.90;;;;;;;-128.00;-1.00;-1.00;103228;1260;1002317;-48
2023/02/04 04:40:12;;;;;;;8.40;4.10;;;;;;;-128.00;-1.00;-1.00;102702;1256;1003717;-48
2023/02/04 04:42:40;;;;;;;12.30;4.90;;;;;;;-128.00;-1.00;-1.00;102725;1257;1010283;-49
2023/02/04 04:45:08;;;;;;;7.30;4.00;;;;;;;-128.00;-1.00;-1.00;103184;1260;1002859;-47
2023/02/04 04:47:36;;;;;;;8.00;3.60;;;;;;;-128.00;-1.00;-1.00;102887;1260;1012964;-44
2023/02/04 04:50:05;;;;;;;9.70;4.50;;;;;;;-128.00;-1.00;-1.00;102845;1260;1002732;-48
2023/02/04 04:52:33;;;;;;;8.20;3.80;;;;;;;-128.00;-1.00;-1.00;102779;1260;1012729;-47
2023/02/04 04:55:02;;;;;;;7.50;3.70;;;;;;;-128.00;-1.00;-1.00;102768;1260;1010564;-47
2023/02/04 04:57:31;;;;;;;7.70;4.00;;;;;;;-128.00;-1.00;-1.00;102855;1260;1010605;-47
2023/02/04 04:59:59;;;;;;;8.00;4.20;;;;;;;-128.00;-1.00;-1.00;103055;1257;1004757;-48
2023/02/04 05:02:27;;;;;;;9.50;5.00;;;;;;;-128.00;-1.00;-1.00;103515;1260;1002774;-48
2023/02/04 05:04:55;;;;;;;8.40;4.80;;;;;;;-128.00;-1.00;-1.00;103910;1258;1002847;-47
2023/02/04 05:07:23;;;;;;;6.60;4.00;;;;;;;-128.00;-1.00;-1.00;103579;1260;1002274;-48
2023/02/04 05:09:52;;;;;;;8.40;3.70;;;;;;;-128.00;-1.00;-1.00;102719;1256;1011607;-50
2023/02/04 05:12:21;;;;;;;7.00;3.90;;;;;;;-128.00;-1.00;-1.00;102720;1257;1013625;-47
2023/02/04 05:14:49;;;;;;;8.80;3.80;;;;;;;-128.00;-1.00;-1.00;102962;1257;1012606;-48
2023/02/04 05:17:17;;;;;;;8.50;4.50;;;;;;;-128.00;-1.00;-1.00;102651;1260;1012616;-48
2023/02/04 05:19:45;;;;;;;6.10;2.40;;;;;;;-128.00;-1.00;-1.00;102669;1260;1011249;-48
2023/02/04 05:22:13;;;;;;;8.30;3.20;;;;;;;-128.00;-1.00;-1.00;102638;1263;1002684;-48
2023/02/04 05:24:41;;;;;;;7.60;3.20;;;;;;;-128.00;-1.00;-1.00;103151;1263;1012963;-46
2023/02/04 05:27:09;;;;;;;6.30;2.80;;;;;;;-128.00;-1.00;-1.00;102718;1260;1002903;-48
2023/02/04 05:29:37;;;;;;;3.90;1.90;;;;;;;-128.00;-1.00;-1.00;102645;1257;1013584;-48
2023/02/04 05:32:06;;;;;;;4.00;2.20;;;;;;;-128.00;-1.00;-1.00;102693;1260;1003702;-47
2023/02/04 05:34:34;;;;;;;3.00;2.10;;;;;;;-128.00;-1.00;-1.00;102746;1260;1002313;-48
2023/02/04 05:37:01;;;;;;;5.30;1.70;;;;;;;-128.00;-1.00;-1.00;102618;1257;1002838;-48
2023/02/04 05:39:29;;;;;;;2.40;1.10;;;;;;;-128.00;-1.00;-1.00;103324;1257;1002556;-48
2023/02/04 05:41:57;;;;;;;1.90;0.90;;;;;;;-128.00;-1.00;-1.00;102736;1260;1002666;-47
2023/02/04 05:44:25;;;;;;;5.70;1.30;;;;;;;-128.00;-1.00;-1.00;103174;1260;1002500;-48
2023/02/04 05:46:54;;;;;;;1.40;0.90;;;;;;;-128.00;-1.00;-1.00;103379;1260;1011707;-46
2023/02/04 05:49:23;;;;;;;1.80;1.10;;;;;;;-128.00;-1.00;-1.00;102643;1260;1002644;-47
2023/02/04 05:51:51;;;;;;;3.40;0.90;;;;;;;-128.00;-1.00;-1.00;102719;1260;1012459;-48
2023/02/04 05:54:19;;;;;;;1.10;0.70;;;;;;;-128.00;-1.00;-1.00;102611;1256;1002719;-48
2023/02/04 05:56:47;;;;;;;1.20;0.60;;;;;;;-128.00;-1.00;-1.00;102759;1257;1005102;-48
2023/02/04 05:59:15;;;;;;;2.80;0.70;;;;;;;-128.00;-1.00;-1.00;102983;1260;1011383;-49
2023/02/04 06:01:44;;;;;;;1.20;0.70;;;;;;;-128.00;-1.00;-1.00;102479;1260;1013594;-49
2023/02/04 06:04:14;;;;;;;1.60;0.90;;;;;;;-128.00;-1.00;-1.00;102023;1257;1004792;-48
2023/02/04 06:06:42;;;;;;;2.10;1.10;;;;;;;-128.00;-1.00;-1.00;102487;1257;1013497;-49
2023/02/04 06:09:10;;;;;;;4.30;1.00;;;;;;;-128.00;-1.00;-1.00;102758;1258;1010305;-48
2023/02/04 06:11:40;;;;;;;2.60;1.10;;;;;;;-128.00;-1.00;-1.00;102164;1257;1011687;-49
2023/02/04 06:14:09;;;;;;;2.10;1.40;;;;;;;-128.00;-1.00;-1.00;102283;1258;1013755;-50
2023/02/04 06:16:37;;;;;;;2.30;1.20;;;;;;;-128.00;-1.00;-1.00;102774;1257;1012860;-48
2023/02/04 06:19:05;;;;;;;4.00;1.30;;;;;;;-128.00;-1.00;-1.00;102683;1257;1004772;-48
2023/02/04 06:21:34;;;;;;;6.10;1.10;;;;;;;-128.00;-1.00;-1.00;103113;1260;1010438;-48
2023/02/04 06:24:01;;;;;;;2.50;1.00;;;;;;;-128.00;-1.00;-1.00;102316;1259;1003242;-48
2023/02/04 06:26:32;;;;;;;2.50;1.00;;;;;;;-128.00;-1.00;-1.00;106180;1256;1013915;-50
2023/02/04 06:29:00;;;;;;;2.60;1.00;;;;;;;-128.00;-1.00;-1.00;102629;1256;1004022;-49
2023/02/04 06:31:29;;;;;;;2.40;0.80;;;;;;;-128.00;-1.00;-1.00;102743;1260;1012450;-48
2023/02/04 06:33:57;;;;;;;2.90;0.80;;;;;;;-128.00;-1.00;-1.00;103057;1257;1013035;-49
2023/02/04 06:36:25;;;;;;;1.80;1.00;;;;;;;-128.00;-1.00;-1.00;102578;1260;1002939;-49
2023/02/04 06:38:53;;;;;;;2.30;0.90;;;;;;;-128.00;-1.00;-1.00;105811;1257;1002368;-49
2023/02/04 06:41:21;;;;;;;2.10;1.00;;;;;;;-128.00;-1.00;-1.00;103107;1260;1002279;-48
2023/02/04 06:43:49;;;;;;;2.60;0.90;;;;;;;-128.00;-1.00;-1.00;102567;1256;1002364;-48
2023/02/04 06:46:17;;;;;;;5.80;0.80;;;;;;;-128.00;-1.00;-1.00;106232;1256;1003036;-48
2023/02/04 06:48:45;;;;;;;3.80;1.10;;;;;;;-128.00;-1.00;-1.00;104622;1256;1003358;-48
2023/02/04 06:51:13;;;;;;;2.20;0.90;;;;;;;-128.00;-1.00;-1.00;103386;1260;1002374;-46
2023/02/04 06:53:43;;;;;;;3.10;0.90;;;;;;;-128.00;-1.00;-1.00;102659;1257;1002722;-49
2023/02/04 06:56:11;;;;;;;1.50;0.90;;;;;;;-128.00;-1.00;-1.00;103038;1259;1012757;-48
2023/02/04 06:58:39;;;;;;;1.60;0.80;;;;;;;-128.00;-1.00;-1.00;102785;1260;1010722;-49
2023/02/04 07:01:07;;;;;;;2.70;0.90;;;;;;;-128.00;-1.00;-1.00;102708;1257;1003013;-49
2023/02/04 07:03:35;;;;;;;2.50;0.90;;;;;;;-128.00;-1.00;-1.00;102662;1260;1013159;-46
2023/02/04 07:06:03;;;;;;;2.60;0.90;;;;;;;-128.00;-1.00;-1.00;102619;1257;1012911;-47
2023/02/04 07:08:32;;;;;;;2.70;0.90;;;;;;;-128.00;-1.00;-1.00;102168;1260;1013400;-48
2023/02/04 07:11:02;;;;;;;1.80;1.00;;;;;;;-128.00;-1.00;-1.00;102887;1259;1010501;-49
2023/02/04 07:13:30;;;;;;;3.70;1.00;;;;;;;-128.00;-1.00;-1.00;102447;1256;1003684;-49
2023/02/04 07:15:59;;;;;;;3.60;1.00;;;;;;;-128.00;-1.00;-1.00;102693;1260;1012804;-48
2023/02/04 07:18:27;;;;;;;6.00;1.10;;;;;;;-128.00;-1.00;-1.00;102790;1260;1013004;-48
2023/02/04 07:20:55;;;;;;;1.70;0.90;;;;;;;-128.00;-1.00;-1.00;102702;1260;1002887;-47
2023/02/04 07:23:24;;;;;;;2.40;1.00;;;;;;;-128.00;-1.00;-1.00;101932;1259;1002871;-48
2023/02/04 07:25:52;;;;;;;1.50;0.90;;;;;;;-128.00;-1.00;-1.00;102206;1260;1011965;-46
2023/02/04 07:28:21;;;;;;;4.00;1.20;;;;;;;-128.00;-1.00;-1.00;102273;1259;1013136;-48
2023/02/04 07:30:49;;;;;;;5.00;1.10;;;;;;;-128.00;-1.00;-1.00;103097;1260;1012227;-48
2023/02/04 07:33:17;;;;;;;2.20;1.10;;;;;;;-128.00;-1.00;-1.00;102311;1260;1012936;-48
2023/02/04 07:35:45;;;;;;;3.30;1.10;;;;;;;-128.00;-1.00;-1.00;102202;1259;1003583;-48
2023/02/04 07:38:13;;;;;;;2.50;1.10;;;;;;;-128.00;-1.00;-1.00;102360;1257;1002945;-49
2023/02/04 07:40:41;;;;;;;4.00;0.90;;;;;;;-128.00;-1.00;-1.00;102638;1257;1002433;-49
2023/02/04 07:43:09;;;;;;;3.80;1.80;;;;;;;-128.00;-1.00;-1.00;102453;1259;1002624;-49
2023/02/04 07:45:40;;;;;;;4.60;1.10;;;;;;;-128.00;-1.00;-1.00;101985;1256;1012746;-49
2023/02/04 07:48:09;;;;;;;2.80;0.90;;;;;;;-128.00;-1.00;-1.00;102488;1257;1011169;-48
2023/02/04 07:50:37;;;;;;;3.00;1.00;;;;;;;-128.00;-1.00;-1.00;103423;1257;1010805;-48
2023/02/04 07:53:05;;;;;;;1.80;1.10;;;;;;;-128.00;-1.00;-1.00;102691;1257;1002893;-48
2023/02/04 07:55:33;;;;;;;2.50;1.00;;;;;;;-128.00;-1.00;-1.00;102730;1260;1013171;-48
2023/02/04 07:58:02;;;;;;;1.90;0.90;;;;;;;-128.00;-1.00;-1.00;103041;1257;1002349;-46
2023/02/04 08:00:30;;;;;;;1.60;0.70;;;;;;;-128.00;-1.00;-1.00;102642;1257;1010692;-48
2023/02/04 08:02:58;;;;;;;1.50;0.80;;;;;;;-128.00;-1.00;-1.00;103182;1257;1011324;-47
2023/02/04 08:05:26;;;;;;;1.80;0.90;;;;;;;-128.00;-1.00;-1.00;103266;1260;1013030;-44
2023/02/04 08:07:54;;;;;;;2.40;0.90;;;;;;;-128.00;-1.00;-1.00;103186;1256;1002857;-49
2023/02/04 08:10:22;;;;;;;1.80;0.90;;;;;;;-128.00;-1.00;-1.00;102731;1257;1002876;-50
2023/02/04 08:12:53;;;;;;;2.40;1.30;;;;;;;-128.00;-1.00;-1.00;102781;1260;1010266;-45
2023/02/04 08:15:21;;;;;;;3.00;0.90;;;;;;;-128.00;-1.00;-1.00;102744;1259;1002326;-45
2023/02/04 08:17:49;;;;;;;3.30;1.10;;;;;;;-128.00;-1.00;-1.00;102704;1258;1002545;-45
2023/02/04 08:20:17;;;;;;;2.70;1.40;;;;;;;-128.00;-1.00;-1.00;102761;1257;1013380;-44
2023/02/04 08:22:46;;;;;;;4.20;1.10;;;;;;;-128.00;-1.00;-1.00;102854;1258;1013397;-48
2023/02/04 08:25:14;;;;;;;2.20;1.00;;;;;;;-128.00;-1.00;-1.00;102793;1259;1002720;-44
2023/02/04 08:27:42;;;;;;;3.10;0.90;;;;;;;-128.00;-1.00;-1.00;102804;1256;1002143;-45
2023/02/04 08:30:10;;;;;;;3.20;1.10;;;;;;;-128.00;-1.00;-1.00;102841;1259;1002886;-48
2023/02/04 08:32:39;;;;;;;2.80;1.10;;;;;;;-128.00;-1.00;-1.00;102756;1259;1012125;-44
2023/02/04 08:35:07;;;;;;;3.50;1.00;;;;;;;-128.00;-1.00;-1.00;102801;1259;1003622;-45
2023/02/04 08:37:37;;;;;;;2.90;2.00;;;;;;;-128.00;-1.00;-1.00;103331;1260;1009609;-45
2023/02/04 08:40:06;;;;;;;3.30;1.30;;;;;;;-128.00;-1.00;-1.00;102849;1257;1003826;-48
2023/02/04 08:42:35;;;;;;;2.30;0.90;;;;;;;-128.00;-1.00;-1.00;106277;1256;1012839;-46
2023/02/04 08:45:03;;;;;;;2.30;0.80;;;;;;;-128.00;-1.00;-1.00;105472;1255;1002432;-45
2023/02/04 08:47:31;;;;;;;2.60;1.00;;;;;;;-128.00;-1.00;-1.00;103279;1257;1012544;-44
2023/02/04 08:49:59;;;;;;;4.60;1.30;;;;;;;-128.00;-1.00;-1.00;102701;1257;1002736;-42
2023/02/04 08:52:27;;;;;;;2.70;1.00;;;;;;;-128.00;-1.00;-1.00;102932;1259;1004554;-49
2023/02/04 08:54:55;;;;;;;2.60;1.00;;;;;;;-128.00;-1.00;-1.00;103112;1256;1002553;-44
2023/02/04 08:57:23;;;;;;;1.70;0.70;;;;;;;-128.00;-1.00;-1.00;102705;1260;1002911;-45
2023/02/04 08:59:51;;;;;;;1.60;0.70;;;;;;;-128.00;-1.00;-1.00;103244;1259;1002983;-46
2023/02/04 09:02:19;;;;;;;1.20;0.80;;;;;;;-128.00;-1.00;-1.00;102758;1259;1002507;-45
2023/02/04 09:04:47;;;;;;;1.40;0.80;;;;;;;-128.00;-1.00;-1.00;102836;1257;1002502;-44
2023/02/04 09:07:15;;;;;;;1.90;0.70;;;;;;;-128.00;-1.00;-1.00;102964;1259;1002950;-48
2023/02/04 09:09:42;;;;;;;2.00;0.80;;;;;;;-128.00;-1.00;-1.00;102967;1258;1003283;-43
2023/02/04 09:12:11;;;;;;;2.70;1.60;;;;;;;-128.00;-1.00;-1.00;103034;1259;1012619;-42
2023/02/04 09:14:39;;;;;;;4.40;1.00;;;;;;;-128.00;-1.00;-1.00;102763;1259;1010896;-43
2023/02/04 09:17:07;;;;;;;2.20;0.90;;;;;;;-128.00;-1.00;-1.00;102925;1259;1004196;-46
2023/02/04 09:19:36;;;;;;;2.40;0.80;;;;;;;-128.00;-1.00;-1.00;102422;1259;1013484;-46
2023/02/04 09:22:04;;;;;;;1.40;0.70;;;;;;;-128.00;-1.00;-1.00;102707;1260;1002561;-48
2023/02/04 09:24:32;;;;;;;0.80;0.40;;;;;;;-128.00;-1.00;-1.00;102795;1257;1003434;-44
2023/02/04 09:26:59;;;;;;;0.90;0.40;;;;;;;-128.00;-1.00;-1.00;103207;1259;1003930;-49
2023/02/04 09:29:27;;;;;;;1.00;0.60;;;;;;;-128.00;-1.00;-1.00;102778;1259;1003969;-47
2023/02/04 09:31:56;;;;;;;1.00;0.50;;;;;;;-128.00;-1.00;-1.00;102697;1256;1015977;-46
2023/02/04 09:34:25;;;;;;;0.60;0.40;;;;;;;-128.00;-1.00;-1.00;102893;1260;1013200;-46
2023/02/04 09:36:53;;;;;;;0.70;0.50;;;;;;;-128.00;-1.00;-1.00;102835;1257;1005363;-49
2023/02/04 09:39:22;;;;;;;0.80;0.40;;;;;;;-128.00;-1.00;-1.00;103135;1259;1010821;-46
2023/02/04 09:41:49;;;;;;;0.90;0.50;;;;;;;-128.00;-1.00;-1.00;102716;1256;1002669;-44
2023/02/04 09:44:18;;;;;;;1.50;0.50;;;;;;;-128.00;-1.00;-1.00;102583;1260;1003555;-46
2023/02/04 09:46:48;;;;;;;0.80;0.40;;;;;;;-128.00;-1.00;-1.00;102587;1259;1014803;-49
2023/02/04 09:49:17;;;;;;;1.70;0.40;;;;;;;-128.00;-1.00;-1.00;102834;1257;1012547;-47
2023/02/04 09:51:45;;;;;;;0.90;0.60;;;;;;;-128.00;-1.00;-1.00;102746;1256;1002648;-44
2023/02/04 09:54:15;;;;;;;0.80;0.70;;;;;;;-128.00;-1.00;-1.00;102859;1257;1010703;-48
2023/02/04 09:56:43;;;;;;;1.20;0.60;;;;;;;-128.00;-1.00;-1.00;102840;1257;1015449;-46
2023/02/04 09:59:21;;;;;;;1.50;0.50;;;;;;;-128.00;-1.00;-1.00;102850;1257;1004032;-47
2023/02/04 10:02:00;;;;;;;1.70;0.40;;;;;;;-128.00;-1.00;-1.00;102817;1257;1012964;-46
2023/02/04 10:04:29;;;;;;;0.80;0.50;;;;;;;-128.00;-1.00;-1.00;102741;1259;1010905;-43
2023/02/04 10:06:57;;;;;;;2.00;0.60;;;;;;;-128.00;-1.00;-1.00;102760;1262;1003005;-46
2023/02/04 10:09:26;;;;;;;1.10;0.50;;;;;;;-128.00;-1.00;-1.00;103198;1257;1013746;-47
2023/02/04 10:11:54;;;;;;;2.10;1.00;;;;;;;-128.00;-1.00;-1.00;102710;1259;1002943;-48
2023/02/04 10:14:39;;;;;;;1.30;0.70;;;;;;;-128.00;-1.00;-1.00;103299;1258;1013675;-46
2023/02/04 10:17:07;;;;;;;3.60;1.00;;;;;;;-128.00;-1.00;-1.00;102500;1262;1011724;-50
2023/02/04 10:19:35;;;;;;;2.20;0.80;;;;;;;-128.00;-1.00;-1.00;102714;1257;1011643;-49
2023/02/04 10:22:09;;;;;;;2.10;1.10;;;;;;;-128.00;-1.00;-1.00;102775;1259;1002940;-48
2023/02/04 10:24:37;;;;;;;2.10;0.70;;;;;;;-128.00;-1.00;-1.00;102881;1258;1012942;-46
2023/02/04 10:27:07;;;;;;;1.60;0.80;;;;;;;-128.00;-1.00;-1.00;103196;1260;1002248;-47
2023/02/04 10:29:35;;;;;;;1.60;0.50;;;;;;;-128.00;-1.00;-1.00;102919;1259;1010925;-44
2023/02/04 10:32:04;;;;;;;4.50;0.70;;;;;;;-128.00;-1.00;-1.00;102848;1259;1002605;-45
2023/02/04 10:34:33;;;;;;;1.60;0.80;;;;;;;-128.00;-1.00;-1.00;103077;1257;1013117;-47
2023/02/04 10:37:11;;;;;;;13.10;5.00;;;;;;;-128.00;-1.00;-1.00;102769;1259;1012837;-47
2023/02/04 10:39:41;;;;;;;6.90;2.20;;;;;;;-128.00;-1.00;-1.00;103174;1257;1013294;-46
2023/02/04 10:42:22;;;;;;;2.00;1.10;;;;;;;-128.00;-1.00;-1.00;106298;1257;1011125;-46
2023/02/04 10:44:51;;;;;;;5.40;1.80;;;;;;;-128.00;-1.00;-1.00;102803;1259;1010722;-46
2023/02/04 10:47:23;;;;;;;2.50;1.60;;;;;;;-128.00;-1.00;-1.00;102770;1259;1012247;-46
2023/02/04 10:49:54;;;;;;;1.90;1.00;;;;;;;-128.00;-1.00;-1.00;102671;1259;1012477;-49
2023/02/04 10:52:25;;;;;;;2.10;0.60;;;;;;;-128.00;-1.00;-1.00;103314;1259;1012717;-48
2023/02/04 10:54:53;;;;;;;1.80;0.70;;;;;;;-128.00;-1.00;-1.00;103156;1257;1010361;-48
2023/02/04 10:57:23;;;;;;;1.90;0.60;;;;;;;-128.00;-1.00;-1.00;102517;1259;1002413;-49
2023/02/04 10:59:56;;;;;;;1.60;0.70;;;;;;;-128.00;-1.00;-1.00;102367;1259;1012493;-46
2023/02/04 11:02:44;;;;;;;2.40;0.70;;;;;;;-128.00;-1.00;-1.00;102509;1259;1012902;-46
2023/02/04 11:05:24;;;;;;;2.20;1.10;;;;;;;-128.00;-1.00;-1.00;102468;1256;1012608;-48
2023/02/04 11:07:51;;;;;;;1.00;0.60;;;;;;;-128.00;-1.00;-1.00;102374;1257;1010001;-47
2023/02/04 11:10:21;;;;;;;1.10;0.60;;;;;;;-128.00;-1.00;-1.00;102989;1257;1002554;-48
2023/02/04 11:12:52;;;;;;;0.80;0.50;;;;;;;-128.00;-1.00;-1.00;102690;1257;1012899;-49
2023/02/04 11:16:11;;;;;;;1.10;0.60;;;;;;;-128.00;-1.00;-1.00;102324;1257;1013503;-48
2023/02/04 11:18:52;;;;;;;1.20;0.90;;;;;;;-128.00;-1.00;-1.00;102315;1263;1013132;-48
2023/02/04 11:21:21;;;;;;;1.40;0.70;;;;;;;-128.00;-1.00;-1.00;102749;1257;1010478;-48
2023/02/04 11:23:50;;;;;;;1.90;0.70;;;;;;;-128.00;-1.00;-1.00;102609;1257;1011200;-47
2023/02/04 11:26:30;;;;;;;2.90;0.60;;;;;;;-128.00;-1.00;-1.00;102935;1257;1013189;-48